sensor_id;sensor_type;location;lat;lon;timestamp;temperature;humidity
32787;DHT22;19139;49.372;8.580;2024-01-15T02:08:50;-0.80;99.90
32787;DHT22;19139;49.372;8.580;2024-01-15T02:11:17;-0.80;99.90
32787;DHT22;19139;49.372;8.580;2024-01-15T02:13:44;-0.80;99.90
32787;DHT22;19139;49.372;8.580;2024-01-15T02:16:11;-0.70;99.90
32787;DHT22;19139;49.372;8.580;2024-01-15T02:18:42;-0.80;99.90
32787;DHT22;19139;49.372;8.580;2024-01-15T02:21:09;-0.70;99.90
32787;DHT22;19139;49.372;8.580;2024-01-15T02:23:38;-0.70;99.90
32787;DHT22;19139;49.372;8.580;2024-01-15T02:26:05;-0.70;99.90
32787;DHT22;19139;49.372;8.580;2024-01-15T02:28:33;-0.70;99.90
32787;DHT22;19139;49.372;8.580;2024-01-15T02:31:00;-0.70;99.90
32787;DHT22;19139;49.372;8.580;2024-01-15T02:33:26;-0.80;99.90
32787;DHT22;19139;49.372;8.580;2024-01-15T02:35:54;-0.80;99.90
32787;DHT22;19139;49.372;8.580;2024-01-15T02:38:20;-0.80;99.90
32787;DHT22;19139;49.372;8.580;2024-01-15T02:40:47;-0.80;99.90
32787;DHT22;19139;49.372;8.580;2024-01-15T02:43:14;-0.70;99.90
32787;DHT22;19139;49.372;8.580;2024-01-15T02:45:41;-0.80;99.90
32787;DHT22;19139;49.372;8.580;2024-01-15T02:48:07;-0.80;99.90
32787;DHT22;19139;49.372;8.580;2024-01-15T02:50:35;-0.80;99.90
32787;DHT22;19139;49.372;8.580;2024-01-15T02:53:01;-0.80;99.90
32787;DHT22;19139;49.372;8.580;2024-01-15T02:55:28;-0.70;99.90
32787;DHT22;19139;49.372;8.580;2024-01-15T02:57:56;-0.70;99.90
32787;DHT22;19139;49.372;8.580;2024-01-15T03:00:23;-0.70;99.90
32787;DHT22;19139;49.372;8.580;2024-01-15T03:02:51;-0.70;99.90
32787;DHT22;19139;49.372;8.580;2024-01-15T03:05:17;-0.70;99.90
32787;DHT22;19139;49.372;8.580;2024-01-15T03:07:44;-0.70;99.90
32787;DHT22;19139;49.372;8.580;2024-01-15T03:10:11;-0.70;99.90
32787;DHT22;19139;49.372;8.580;2024-01-15T03:12:38;-0.70;99.90
32787;DHT22;19139;49.372;8.580;2024-01-15T03:15:05;-0.70;99.90
32787;DHT22;19139;49.372;8.580;2024-01-15T03:17:32;-0.70;99.90
32787;DHT22;19139;49.372;8.580;2024-01-15T03:19:58;-0.70;99.90
32787;DHT22;19139;49.372;8.580;2024-01-15T03:22:26;-0.60;99.90
32787;DHT22;19139;49.372;8.580;2024-01-15T03:24:53;-0.60;99.90
32787;DHT22;19139;49.372;8.580;2024-01-15T03:27:20;-0.60;99.90
32787;DHT22;19139;49.372;8.580;2024-01-15T03:29:47;-0.70;99.90
32787;DHT22;19139;49.372;8.580;2024-01-15T03:32:14;-0.60;99.90
32787;DHT22;19139;49.372;8.580;2024-01-15T03:34:42;-0.60;99.90
32787;DHT22;19139;49.372;8.580;2024-01-15T03:37:09;-0.50;99.90
32787;DHT22;19139;49.372;8.580;2024-01-15T03:39:35;-0.60;99.90
32787;DHT22;19139;49.372;8.580;2024-01-15T03:42:03;-0.60;99.90
32787;DHT22;19139;49.372;8.580;2024-01-15T03:44:30;-0.50;99.90
32787;DHT22;19139;49.372;8.580;2024-01-15T03:46:57;-0.60;99.90
32787;DHT22;19139;49.372;8.580;2024-01-15T03:49:24;-0.60;99.90
32787;DHT22;19139;49.372;8.580;2024-01-15T03:51:51;-0.60;99.90
32787;DHT22;19139;49.372;8.580;2024-01-15T03:54:18;-0.60;99.90
32787;DHT22;19139;49.372;8.580;2024-01-15T03:56:46;-0.60;99.90
32787;DHT22;19139;49.372;8.580;2024-01-15T03:59:13;-0.60;99.90
32787;DHT22;19139;49.372;8.580;2024-01-15T04:01:40;-0.60;99.90
32787;DHT22;19139;49.372;8.580;2024-01-15T04:04:07;-0.60;99.90
32787;DHT22;19139;49.372;8.580;2024-01-15T04:06:34;-0.60;99.90
32787;DHT22;19139;49.372;8.580;2024-01-15T04:09:01;-0.60;99.90
32787;DHT22;19139;49.372;8.580;2024-01-15T04:11:27;-0.60;99.90
32787;DHT22;19139;49.372;8.580;2024-01-15T04:13:54;-0.60;99.90
32787;DHT22;19139;49.372;8.580;2024-01-15T04:16:21;-0.50;99.90
32787;DHT22;19139;49.372;8.580;2024-01-15T04:18:48;-0.40;99.90
32787;DHT22;19139;49.372;8.580;2024-01-15T04:21:16;-0.50;99.90
32787;DHT22;19139;49.372;8.580;2024-01-15T04:23:43;-0.40;99.90
32787;DHT22;19139;49.372;8.580;2024-01-15T04:26:10;-0.50;99.90
32787;DHT22;19139;49.372;8.580;2024-01-15T04:28:36;-0.40;99.90
32787;DHT22;19139;49.372;8.580;2024-01-15T04:31:03;-0.50;99.90
32787;DHT22;19139;49.372;8.580;2024-01-15T04:33:30;-0.50;99.90
32787;DHT22;19139;49.372;8.580;2024-01-15T04:36:01;-0.60;99.90
32787;DHT22;19139;49.372;8.580;2024-01-15T04:38:28;-0.60;99.90
32787;DHT22;19139;49.372;8.580;2024-01-15T04:40:55;-0.40;99.90
32787;DHT22;19139;49.372;8.580;2024-01-15T04:43:24;-0.50;99.90
32787;DHT22;19139;49.372;8.580;2024-01-15T04:45:51;-0.50;99.90
32787;DHT22;19139;49.372;8.580;2024-01-15T04:48:18;-0.50;99.90
32787;DHT22;19139;49.372;8.580;2024-01-15T04:50:45;-0.50;99.90
32787;DHT22;19139;49.372;8.580;2024-01-15T04:53:12;-0.50;99.90
32787;DHT22;19139;49.372;8.580;2024-01-15T04:55:39;-0.40;99.90
32787;DHT22;19139;49.372;8.580;2024-01-15T04:58:06;-0.40;99.90
32787;DHT22;19139;49.372;8.580;2024-01-15T05:00:33;-0.40;99.90
32787;DHT22;19139;49.372;8.580;2024-01-15T05:03:00;-0.40;99.90
32787;DHT22;19139;49.372;8.580;2024-01-15T05:05:27;-0.40;99.90
32787;DHT22;19139;49.372;8.580;2024-01-15T05:07:54;-0.50;99.90
32787;DHT22;19139;49.372;8.580;2024-01-15T05:10:20;-0.50;99.90
32787;DHT22;19139;49.372;8.580;2024-01-15T05:12:47;-0.50;99.90
32787;DHT22;19139;49.372;8.580;2024-01-15T05:15:14;-0.50;99.90
32787;DHT22;19139;49.372;8.580;2024-01-15T05:17:41;-0.50;99.90
32787;DHT22;19139;49.372;8.580;2024-01-15T05:20:08;-0.50;99.90
32787;DHT22;19139;49.372;8.580;2024-01-15T05:22:35;-0.50;99.90
32787;DHT22;19139;49.372;8.580;2024-01-15T05:25:02;-0.50;99.90
32787;DHT22;19139;49.372;8.580;2024-01-15T05:27:29;-0.50;99.90
32787;DHT22;19139;49.372;8.580;2024-01-15T05:29:55;-0.50;99.90
32787;DHT22;19139;49.372;8.580;2024-01-15T05:32:23;-0.40;99.90
32787;DHT22;19139;49.372;8.580;2024-01-15T05:34:50;-0.40;99.90
32787;DHT22;19139;49.372;8.580;2024-01-15T05:37:17;-0.40;99.90
32787;DHT22;19139;49.372;8.580;2024-01-15T05:39:44;-0.40;99.90
32787;DHT22;19139;49.372;8.580;2024-01-15T05:42:10;-0.40;99.90
32787;DHT22;19139;49.372;8.580;2024-01-15T05:44:38;-0.40;99.90
32787;DHT22;19139;49.372;8.580;2024-01-15T05:47:05;-0.40;99.90
32787;DHT22;19139;49.372;8.580;2024-01-15T05:49:31;-0.40;99.90
32787;DHT22;19139;49.372;8.580;2024-01-15T05:51:58;-0.40;99.90
32787;DHT22;19139;49.372;8.580;2024-01-15T05:54:25;-0.40;99.90
32787;DHT22;19139;49.372;8.580;2024-01-15T05:56:52;-0.40;99.90
32787;DHT22;19139;49.372;8.580;2024-01-15T05:59:18;-0.40;99.90
32787;DHT22;19139;49.372;8.580;2024-01-15T06:01:45;-0.40;99.90
32787;DHT22;19139;49.372;8.580;2024-01-15T06:04:12;-0.30;99.90
32787;DHT22;19139;49.372;8.580;2024-01-15T06:06:39;-0.30;99.90
32787;DHT22;19139;49.372;8.580;2024-01-15T06:09:06;-0.30;99.90
32787;DHT22;19139;49.372;8.580;2024-01-15T06:11:33;-0.40;99.90
32787;DHT22;19139;49.372;8.580;2024-01-15T06:14:00;-0.40;99.90
32787;DHT22;19139;49.372;8.580;2024-01-15T06:16:27;-0.30;99.90
32787;DHT22;19139;49.372;8.580;2024-01-15T06:18:54;-0.30;99.90
32787;DHT22;19139;49.372;8.580;2024-01-15T06:21:21;-0.30;99.90
32787;DHT22;19139;49.372;8.580;2024-01-15T06:23:48;-0.30;99.90
32787;DHT22;19139;49.372;8.580;2024-01-15T06:26:15;-0.20;99.90
32787;DHT22;19139;49.372;8.580;2024-01-15T06:28:42;-0.10;99.90
32787;DHT22;19139;49.372;8.580;2024-01-15T06:31:09;-0.20;99.90
32787;DHT22;19139;49.372;8.580;2024-01-15T06:33:36;-0.20;99.90
32787;DHT22;19139;49.372;8.580;2024-01-15T06:36:03;-0.20;99.90
32787;DHT22;19139;49.372;8.580;2024-01-15T06:38:30;-0.10;99.90
32787;DHT22;19139;49.372;8.580;2024-01-15T06:40:57;-0.10;99.90
32787;DHT22;19139;49.372;8.580;2024-01-15T06:43:23;-0.10;99.90
32787;DHT22;19139;49.372;8.580;2024-01-15T06:45:50;-0.10;99.90
32787;DHT22;19139;49.372;8.580;2024-01-15T06:48:17;0.00;99.90
32787;DHT22;19139;49.372;8.580;2024-01-15T06:50:44;0.00;99.90
32787;DHT22;19139;49.372;8.580;2024-01-15T06:53:11;0.00;99.90
32787;DHT22;19139;49.372;8.580;2024-01-15T06:55:38;0.00;99.90
32787;DHT22;19139;49.372;8.580;2024-01-15T06:58:05;0.10;99.90
32787;DHT22;19139;49.372;8.580;2024-01-15T07:00:32;0.10;99.90
32787;DHT22;19139;49.372;8.580;2024-01-15T07:03:00;0.10;99.90
32787;DHT22;19139;49.372;8.580;2024-01-15T07:05:26;0.20;99.90
32787;DHT22;19139;49.372;8.580;2024-01-15T07:07:53;0.20;99.90
32787;DHT22;19139;49.372;8.580;2024-01-15T07:10:20;0.20;99.90
32787;DHT22;19139;49.372;8.580;2024-01-15T07:12:47;0.20;99.90
32787;DHT22;19139;49.372;8.580;2024-01-15T07:15:14;0.10;99.90
32787;DHT22;19139;49.372;8.580;2024-01-15T07:17:41;0.10;99.90
32787;DHT22;19139;49.372;8.580;2024-01-15T07:20:09;0.10;99.90
32787;DHT22;19139;49.372;8.580;2024-01-15T07:22:36;0.10;99.90
32787;DHT22;19139;49.372;8.580;2024-01-15T07:25:04;0.10;99.90
32787;DHT22;19139;49.372;8.580;2024-01-15T07:27:32;0.10;99.90
32787;DHT22;19139;49.372;8.580;2024-01-15T07:29:59;0.10;99.90
32787;DHT22;19139;49.372;8.580;2024-01-15T07:32:29;0.10;99.90
32787;DHT22;19139;49.372;8.580;2024-01-15T07:34:56;0.10;99.90
32787;DHT22;19139;49.372;8.580;2024-01-15T07:37:23;0.20;99.90
32787;DHT22;19139;49.372;8.580;2024-01-15T07:39:50;0.20;99.90
32787;DHT22;19139;49.372;8.580;2024-01-15T07:42:17;0.10;99.90
32787;DHT22;19139;49.372;8.580;2024-01-15T07:44:44;0.10;99.90
32787;DHT22;19139;49.372;8.580;2024-01-15T07:47:11;0.10;99.90
32787;DHT22;19139;49.372;8.580;2024-01-15T07:49:38;0.10;99.90
32787;DHT22;19139;49.372;8.580;2024-01-15T07:52:05;0.10;99.90
32787;DHT22;19139;49.372;8.580;2024-01-15T07:54:32;0.10;99.90
32787;DHT22;19139;49.372;8.580;2024-01-15T07:57:00;0.20;99.90
32787;DHT22;19139;49.372;8.580;2024-01-15T07:59:27;0.10;99.90
32787;DHT22;19139;49.372;8.580;2024-01-15T08:01:54;0.20;99.90
32787;DHT22;19139;49.372;8.580;2024-01-15T08:04:21;0.20;99.90
32787;DHT22;19139;49.372;8.580;2024-01-15T08:06:51;0.20;99.90
32787;DHT22;19139;49.372;8.580;2024-01-15T08:09:18;0.30;99.90
32787;DHT22;19139;49.372;8.580;2024-01-15T08:11:44;0.30;99.90
32787;DHT22;19139;49.372;8.580;2024-01-15T08:14:12;0.30;99.90
32787;DHT22;19139;49.372;8.580;2024-01-15T08:16:39;0.30;99.90
32787;DHT22;19139;49.372;8.580;2024-01-15T08:19:07;0.30;99.90
32787;DHT22;19139;49.372;8.580;2024-01-15T08:21:34;0.30;99.90
32787;DHT22;19139;49.372;8.580;2024-01-15T08:24:02;0.40;99.90
32787;DHT22;19139;49.372;8.580;2024-01-15T08:26:29;0.40;99.90
32787;DHT22;19139;49.372;8.580;2024-01-15T08:28:56;0.50;99.90
32787;DHT22;19139;49.372;8.580;2024-01-15T08:31:23;0.50;99.90
32787;DHT22;19139;49.372;8.580;2024-01-15T08:33:50;0.50;99.90
32787;DHT22;19139;49.372;8.580;2024-01-15T08:36:18;0.50;99.90
32787;DHT22;19139;49.372;8.580;2024-01-15T08:38:45;0.50;99.90
32787;DHT22;19139;49.372;8.580;2024-01-15T08:41:13;0.60;99.90
32787;DHT22;19139;49.372;8.580;2024-01-15T08:43:39;0.60;99.90
32787;DHT22;19139;49.372;8.580;2024-01-15T08:46:06;0.60;99.90
32787;DHT22;19139;49.372;8.580;2024-01-15T08:48:34;0.70;99.90
32787;DHT22;19139;49.372;8.580;2024-01-15T08:51:01;0.70;99.90
32787;DHT22;19139;49.372;8.580;2024-01-15T08:53:28;0.70;99.90
32787;DHT22;19139;49.372;8.580;2024-01-15T08:55:55;0.70;99.90
32787;DHT22;19139;49.372;8.580;2024-01-15T08:58:23;0.80;99.90
32787;DHT22;19139;49.372;8.580;2024-01-15T09:00:50;0.80;99.90
32787;DHT22;19139;49.372;8.580;2024-01-15T09:03:18;0.90;99.90
32787;DHT22;19139;49.372;8.580;2024-01-15T09:05:45;0.90;99.90
32787;DHT22;19139;49.372;8.580;2024-01-15T09:08:12;0.90;99.90
32787;DHT22;19139;49.372;8.580;2024-01-15T09:10:38;0.90;99.90
32787;DHT22;19139;49.372;8.580;2024-01-15T09:13:05;1.00;99.90
32787;DHT22;19139;49.372;8.580;2024-01-15T09:15:32;1.00;99.90
32787;DHT22;19139;49.372;8.580;2024-01-15T09:17:59;1.00;99.90
32787;DHT22;19139;49.372;8.580;2024-01-15T09:20:29;1.00;99.90
32787;DHT22;19139;49.372;8.580;2024-01-15T09:22:56;1.00;99.90
32787;DHT22;19139;49.372;8.580;2024-01-15T09:25:23;1.00;99.90
32787;DHT22;19139;49.372;8.580;2024-01-15T09:27:49;1.10;99.90
32787;DHT22;19139;49.372;8.580;2024-01-15T09:30:17;1.00;99.90
32787;DHT22;19139;49.372;8.580;2024-01-15T09:32:44;1.10;99.90
32787;DHT22;19139;49.372;8.580;2024-01-15T09:35:11;1.10;99.90
32787;DHT22;19139;49.372;8.580;2024-01-15T09:37:39;1.00;99.90
32787;DHT22;19139;49.372;8.580;2024-01-15T09:40:14;1.10;99.90
32787;DHT22;19139;49.372;8.580;2024-01-15T09:42:44;1.10;99.90
32787;DHT22;19139;49.372;8.580;2024-01-15T09:45:13;1.10;99.90
32787;DHT22;19139;49.372;8.580;2024-01-15T09:47:41;1.10;99.90
32787;DHT22;19139;49.372;8.580;2024-01-15T09:50:13;1.00;99.90
32787;DHT22;19139;49.372;8.580;2024-01-15T09:52:41;1.00;99.90
32787;DHT22;19139;49.372;8.580;2024-01-15T09:55:09;1.10;99.90
32787;DHT22;19139;49.372;8.580;2024-01-15T09:57:36;1.00;99.90
32787;DHT22;19139;49.372;8.580;2024-01-15T10:00:05;1.00;99.90
32787;DHT22;19139;49.372;8.580;2024-01-15T10:02:35;1.00;99.90
32787;DHT22;19139;49.372;8.580;2024-01-15T10:05:02;1.00;99.90
32787;DHT22;19139;49.372;8.580;2024-01-15T10:07:30;1.00;99.90
32787;DHT22;19139;49.372;8.580;2024-01-15T10:10:00;1.00;99.90
32787;DHT22;19139;49.372;8.580;2024-01-15T10:12:27;1.00;99.90
32787;DHT22;19139;49.372;8.580;2024-01-15T10:14:56;1.10;99.90
32787;DHT22;19139;49.372;8.580;2024-01-15T10:17:24;1.10;99.90
32787;DHT22;19139;49.372;8.580;2024-01-15T10:19:51;1.10;99.90
32787;DHT22;19139;49.372;8.580;2024-01-15T10:22:18;1.10;99.90
32787;DHT22;19139;49.372;8.580;2024-01-15T10:24:45;1.00;99.90
32787;DHT22;19139;49.372;8.580;2024-01-15T10:27:15;1.00;99.90
32787;DHT22;19139;49.372;8.580;2024-01-15T10:29:42;0.90;99.90
32787;DHT22;19139;49.372;8.580;2024-01-15T10:32:09;0.80;99.90
32787;DHT22;19139;49.372;8.580;2024-01-15T10:34:40;0.70;99.90
32787;DHT22;19139;49.372;8.580;2024-01-15T10:37:08;0.70;99.90
32787;DHT22;19139;49.372;8.580;2024-01-15T10:39:36;0.60;99.90
32787;DHT22;19139;49.372;8.580;2024-01-15T10:42:04;0.60;99.90
32787;DHT22;19139;49.372;8.580;2024-01-15T10:44:31;0.70;99.90
32787;DHT22;19139;49.372;8.580;2024-01-15T10:46:58;0.80;99.90
32787;DHT22;19139;49.372;8.580;2024-01-15T10:49:25;0.80;99.90
32787;DHT22;19139;49.372;8.580;2024-01-15T10:51:59;0.70;99.90
32787;DHT22;19139;49.372;8.580;2024-01-15T10:54:27;0.80;99.90
32787;DHT22;19139;49.372;8.580;2024-01-15T10:56:56;0.80;99.90
32787;DHT22;19139;49.372;8.580;2024-01-15T10:59:23;0.80;99.90
32787;DHT22;19139;49.372;8.580;2024-01-15T11:01:51;0.80;99.90
32787;DHT22;19139;49.372;8.580;2024-01-15T11:04:21;0.90;99.90
32787;DHT22;19139;49.372;8.580;2024-01-15T11:06:52;0.80;99.90
32787;DHT22;19139;49.372;8.580;2024-01-15T11:09:23;0.90;99.90
32787;DHT22;19139;49.372;8.580;2024-01-15T11:12:07;0.90;99.90
32787;DHT22;19139;49.372;8.580;2024-01-15T11:14:47;0.90;99.90
32787;DHT22;19139;49.372;8.580;2024-01-15T11:17:15;0.90;99.90
32787;DHT22;19139;49.372;8.580;2024-01-15T11:19:48;1.00;99.90
32787;DHT22;19139;49.372;8.580;2024-01-15T11:24:58;1.00;99.90
32787;DHT22;19139;49.372;8.580;2024-01-15T11:27:45;1.00;99.90
32787;DHT22;19139;49.372;8.580;2024-01-15T11:30:14;1.20;99.90
32787;DHT22;19139;49.372;8.580;2024-01-15T11:32:41;1.20;99.90
32787;DHT22;19139;49.372;8.580;2024-01-15T11:35:10;1.10;99.90
32787;DHT22;19139;49.372;8.580;2024-01-15T11:40:19;1.10;99.90
32787;DHT22;19139;49.372;8.580;2024-01-15T11:42:46;1.10;99.90
32787;DHT22;19139;49.372;8.580;2024-01-15T11:45:22;1.20;99.90
32787;DHT22;19139;49.372;8.580;2024-01-15T11:50:46;1.30;99.90
32787;DHT22;19139;49.372;8.580;2024-01-15T11:55:51;1.40;99.90
32787;DHT22;19139;49.372;8.580;2024-01-15T11:58:18;1.40;99.90
32787;DHT22;19139;49.372;8.580;2024-01-15T12:00:47;1.40;99.90
32787;DHT22;19139;49.372;8.580;2024-01-15T12:03:15;1.40;99.90
32787;DHT22;19139;49.372;8.580;2024-01-15T12:05:42;1.40;99.90
32787;DHT22;19139;49.372;8.580;2024-01-15T12:08:09;1.50;99.90
32787;DHT22;19139;49.372;8.580;2024-01-15T12:10:40;1.60;99.90
32787;DHT22;19139;49.372;8.580;2024-01-15T12:13:12;1.40;99.90
32787;DHT22;19139;49.372;8.580;2024-01-15T12:15:45;1.40;99.90
32787;DHT22;19139;49.372;8.580;2024-01-15T12:18:14;1.40;99.90
32787;DHT22;19139;49.372;8.580;2024-01-15T12:20:43;1.40;99.90
32787;DHT22;19139;49.372;8.580;2024-01-15T12:23:10;1.50;99.90
32787;DHT22;19139;49.372;8.580;2024-01-15T12:25:38;1.50;99.90
32787;DHT22;19139;49.372;8.580;2024-01-15T12:28:05;1.50;99.90
32787;DHT22;19139;49.372;8.580;2024-01-15T12:30:33;1.50;99.90
32787;DHT22;19139;49.372;8.580;2024-01-15T12:33:05;1.50;99.90
32787;DHT22;19139;49.372;8.580;2024-01-15T12:35:33;1.50;99.90
32787;DHT22;19139;49.372;8.580;2024-01-15T12:38:01;1.50;99.90
32787;DHT22;19139;49.372;8.580;2024-01-15T12:40:32;1.50;99.90
32787;DHT22;19139;49.372;8.580;2024-01-15T12:43:00;1.60;99.90
32787;DHT22;19139;49.372;8.580;2024-01-15T12:45:28;1.50;99.90
32787;DHT22;19139;49.372;8.580;2024-01-15T12:47:56;1.60;99.90
32787;DHT22;19139;49.372;8.580;2024-01-15T12:50:24;1.60;99.90
32787;DHT22;19139;49.372;8.580;2024-01-15T12:52:52;1.70;99.90
32787;DHT22;19139;49.372;8.580;2024-01-15T12:55:18;1.80;99.90
32787;DHT22;19139;49.372;8.580;2024-01-15T12:57:45;1.90;99.90
32787;DHT22;19139;49.372;8.580;2024-01-15T13:00:13;1.90;99.90
32787;DHT22;19139;49.372;8.580;2024-01-15T13:02:42;2.00;99.90
32787;DHT22;19139;49.372;8.580;2024-01-15T13:05:10;2.00;99.90
32787;DHT22;19139;49.372;8.580;2024-01-15T13:07:41;2.10;99.90
32787;DHT22;19139;49.372;8.580;2024-01-15T13:10:09;2.20;99.90
32787;DHT22;19139;49.372;8.580;2024-01-15T13:12:37;2.20;99.90
32787;DHT22;19139;49.372;8.580;2024-01-15T13:15:05;2.20;99.90
32787;DHT22;19139;49.372;8.580;2024-01-15T13:17:32;2.20;99.90
32787;DHT22;19139;49.372;8.580;2024-01-15T13:19:59;2.30;99.90
32787;DHT22;19139;49.372;8.580;2024-01-15T13:22:26;2.20;99.90
32787;DHT22;19139;49.372;8.580;2024-01-15T13:24:58;2.30;99.90
32787;DHT22;19139;49.372;8.580;2024-01-15T13:27:26;2.30;99.90
32787;DHT22;19139;49.372;8.580;2024-01-15T13:29:53;2.20;99.90
32787;DHT22;19139;49.372;8.580;2024-01-15T13:32:25;2.20;99.90
32787;DHT22;19139;49.372;8.580;2024-01-15T13:34:59;2.20;99.90
32787;DHT22;19139;49.372;8.580;2024-01-15T13:37:26;2.20;99.90
32787;DHT22;19139;49.372;8.580;2024-01-15T13:39:54;2.20;99.90
32787;DHT22;19139;49.372;8.580;2024-01-15T13:42:21;2.30;99.90
32787;DHT22;19139;49.372;8.580;2024-01-15T13:44:48;2.30;99.90
32787;DHT22;19139;49.372;8.580;2024-01-15T13:47:15;2.30;99.90
32787;DHT22;19139;49.372;8.580;2024-01-15T13:49:42;2.30;99.90
32787;DHT22;19139;49.372;8.580;2024-01-15T13:52:09;2.40;99.90
32787;DHT22;19139;49.372;8.580;2024-01-15T13:54:36;2.40;99.90
32787;DHT22;19139;49.372;8.580;2024-01-15T13:57:16;2.50;99.90
32787;DHT22;19139;49.372;8.580;2024-01-15T13:59:44;2.50;99.90
32787;DHT22;19139;49.372;8.580;2024-01-15T14:02:11;2.60;99.90
32787;DHT22;19139;49.372;8.580;2024-01-15T14:04:39;2.50;99.90
32787;DHT22;19139;49.372;8.580;2024-01-15T14:07:08;2.60;99.90
32787;DHT22;19139;49.372;8.580;2024-01-15T14:09:34;2.60;99.90
32787;DHT22;19139;49.372;8.580;2024-01-15T14:12:01;2.70;99.90
32787;DHT22;19139;49.372;8.580;2024-01-15T14:14:29;2.80;99.90
32787;DHT22;19139;49.372;8.580;2024-01-15T14:16:55;2.70;99.90
32787;DHT22;19139;49.372;8.580;2024-01-15T14:19:23;2.90;99.90
32787;DHT22;19139;49.372;8.580;2024-01-15T14:21:50;3.10;99.90
32787;DHT22;19139;49.372;8.580;2024-01-15T14:24:17;3.30;99.90
32787;DHT22;19139;49.372;8.580;2024-01-15T14:26:44;3.30;99.90
32787;DHT22;19139;49.372;8.580;2024-01-15T14:29:11;3.40;99.90
32787;DHT22;19139;49.372;8.580;2024-01-15T14:31:38;3.20;99.90
32787;DHT22;19139;49.372;8.580;2024-01-15T14:34:05;3.00;99.90
32787;DHT22;19139;49.372;8.580;2024-01-15T14:36:37;2.90;99.90
32787;DHT22;19139;49.372;8.580;2024-01-15T14:39:04;2.90;99.90
32787;DHT22;19139;49.372;8.580;2024-01-15T14:41:31;2.90;99.90
32787;DHT22;19139;49.372;8.580;2024-01-15T14:43:58;2.90;99.90
32787;DHT22;19139;49.372;8.580;2024-01-15T14:46:25;2.80;99.90
32787;DHT22;19139;49.372;8.580;2024-01-15T14:48:53;2.80;99.90
32787;DHT22;19139;49.372;8.580;2024-01-15T14:51:20;2.80;99.90
32787;DHT22;19139;49.372;8.580;2024-01-15T14:53:47;2.80;99.90
32787;DHT22;19139;49.372;8.580;2024-01-15T14:56:14;2.70;99.90
32787;DHT22;19139;49.372;8.580;2024-01-15T14:58:44;2.80;99.90
32787;DHT22;19139;49.372;8.580;2024-01-15T15:01:11;2.90;99.90
32787;DHT22;19139;49.372;8.580;2024-01-15T15:03:38;2.90;99.90
32787;DHT22;19139;49.372;8.580;2024-01-15T15:06:05;2.90;99.90
32787;DHT22;19139;49.372;8.580;2024-01-15T15:08:38;2.90;99.90
32787;DHT22;19139;49.372;8.580;2024-01-15T15:11:06;2.70;99.90
32787;DHT22;19139;49.372;8.580;2024-01-15T15:13:32;2.70;99.90
32787;DHT22;19139;49.372;8.580;2024-01-15T15:16:11;2.70;99.90
32787;DHT22;19139;49.372;8.580;2024-01-15T15:18:39;2.60;99.90
32787;DHT22;19139;49.372;8.580;2024-01-15T15:21:06;2.60;99.90
32787;DHT22;19139;49.372;8.580;2024-01-15T15:23:34;2.60;99.90
32787;DHT22;19139;49.372;8.580;2024-01-15T15:26:01;2.70;99.90
32787;DHT22;19139;49.372;8.580;2024-01-15T15:28:28;2.60;99.90
32787;DHT22;19139;49.372;8.580;2024-01-15T15:30:55;2.60;99.90
32787;DHT22;19139;49.372;8.580;2024-01-15T15:33:23;2.60;99.90
32787;DHT22;19139;49.372;8.580;2024-01-15T15:35:50;2.60;99.90
32787;DHT22;19139;49.372;8.580;2024-01-15T15:38:18;2.60;99.90
32787;DHT22;19139;49.372;8.580;2024-01-15T15:40:44;2.60;99.90
32787;DHT22;19139;49.372;8.580;2024-01-15T15:43:11;2.60;99.90
32787;DHT22;19139;49.372;8.580;2024-01-15T15:45:38;2.60;99.90
32787;DHT22;19139;49.372;8.580;2024-01-15T15:48:05;2.70;99.90
32787;DHT22;19139;49.372;8.580;2024-01-15T15:50:32;2.60;99.90
32787;DHT22;19139;49.372;8.580;2024-01-15T15:53:01;2.60;99.90
32787;DHT22;19139;49.372;8.580;2024-01-15T15:55:29;2.60;99.90
32787;DHT22;19139;49.372;8.580;2024-01-15T15:57:57;2.60;99.90
32787;DHT22;19139;49.372;8.580;2024-01-15T16:00:23;2.50;99.90
32787;DHT22;19139;49.372;8.580;2024-01-15T16:02:50;2.50;99.90
32787;DHT22;19139;49.372;8.580;2024-01-15T16:05:17;2.50;99.90
32787;DHT22;19139;49.372;8.580;2024-01-15T16:07:45;2.50;99.90
32787;DHT22;19139;49.372;8.580;2024-01-15T16:10:11;2.50;99.90
32787;DHT22;19139;49.372;8.580;2024-01-15T16:12:39;2.50;99.90
32787;DHT22;19139;49.372;8.580;2024-01-15T16:15:18;2.40;99.90
32787;DHT22;19139;49.372;8.580;2024-01-15T16:17:50;2.30;99.90
32787;DHT22;19139;49.372;8.580;2024-01-15T16:20:37;2.20;99.90
32787;DHT22;19139;49.372;8.580;2024-01-15T16:23:24;2.10;99.90
32787;DHT22;19139;49.372;8.580;2024-01-15T16:26:10;2.20;99.90
32787;DHT22;19139;49.372;8.580;2024-01-15T16:28:38;2.10;99.90
32787;DHT22;19139;49.372;8.580;2024-01-15T16:31:05;2.00;99.90
32787;DHT22;19139;49.372;8.580;2024-01-15T16:33:35;1.90;99.90
32787;DHT22;19139;49.372;8.580;2024-01-15T16:36:03;2.00;99.90
32787;DHT22;19139;49.372;8.580;2024-01-15T16:38:30;2.00;99.90
32787;DHT22;19139;49.372;8.580;2024-01-15T16:40:57;1.90;99.90
32787;DHT22;19139;49.372;8.580;2024-01-15T16:43:25;1.80;99.90
32787;DHT22;19139;49.372;8.580;2024-01-15T16:45:53;1.80;99.90
32787;DHT22;19139;49.372;8.580;2024-01-15T16:48:20;1.70;99.90
32787;DHT22;19139;49.372;8.580;2024-01-15T16:50:46;1.70;99.90
32787;DHT22;19139;49.372;8.580;2024-01-15T16:53:13;1.70;99.90
32787;DHT22;19139;49.372;8.580;2024-01-15T16:55:40;1.70;99.90
32787;DHT22;19139;49.372;8.580;2024-01-15T16:58:07;1.50;99.90
32787;DHT22;19139;49.372;8.580;2024-01-15T17:00:33;1.50;99.90
32787;DHT22;19139;49.372;8.580;2024-01-15T17:03:00;1.40;99.90
32787;DHT22;19139;49.372;8.580;2024-01-15T17:05:27;1.50;99.90
32787;DHT22;19139;49.372;8.580;2024-01-15T17:07:54;1.50;99.90
32787;DHT22;19139;49.372;8.580;2024-01-15T17:10:21;1.60;99.90
32787;DHT22;19139;49.372;8.580;2024-01-15T17:12:48;1.60;99.90
32787;DHT22;19139;49.372;8.580;2024-01-15T17:15:15;1.70;99.90
32787;DHT22;19139;49.372;8.580;2024-01-15T17:17:42;1.80;99.90
32787;DHT22;19139;49.372;8.580;2024-01-15T17:20:09;1.80;99.90
32787;DHT22;19139;49.372;8.580;2024-01-15T17:22:36;1.80;99.90
32787;DHT22;19139;49.372;8.580;2024-01-15T17:25:05;1.80;99.90
32787;DHT22;19139;49.372;8.580;2024-01-15T17:27:32;1.80;99.90
32787;DHT22;19139;49.372;8.580;2024-01-15T17:29:59;1.80;99.90
32787;DHT22;19139;49.372;8.580;2024-01-15T17:32:26;1.80;99.90
32787;DHT22;19139;49.372;8.580;2024-01-15T17:34:53;1.90;99.90
32787;DHT22;19139;49.372;8.580;2024-01-15T17:37:20;1.90;99.90
32787;DHT22;19139;49.372;8.580;2024-01-15T17:39:46;1.90;99.90
32787;DHT22;19139;49.372;8.580;2024-01-15T17:42:13;1.90;99.90
32787;DHT22;19139;49.372;8.580;2024-01-15T17:44:40;1.90;99.90
32787;DHT22;19139;49.372;8.580;2024-01-15T17:47:08;1.90;99.90
32787;DHT22;19139;49.372;8.580;2024-01-15T17:49:35;1.90;99.90
32787;DHT22;19139;49.372;8.580;2024-01-15T17:52:02;1.90;99.90
32787;DHT22;19139;49.372;8.580;2024-01-15T17:54:30;1.90;99.90
32787;DHT22;19139;49.372;8.580;2024-01-15T17:56:57;1.80;99.90
32787;DHT22;19139;49.372;8.580;2024-01-15T17:59:24;1.80;99.90
32787;DHT22;19139;49.372;8.580;2024-01-15T18:01:51;1.80;99.90
32787;DHT22;19139;49.372;8.580;2024-01-15T18:04:18;1.80;99.90